Time;durP1;ratioP1;P1;durP2;ratioP2;P2;SDS_P1;SDS_P2;PMS_P1;PMS_P2;Temp;Humidity;BMP_temperature;BMP_pressure;BME280_temperature;BME280_humidity;BME280_pressure;Samples;Min_cycle;Max_cycle;Signal;HPM_P1;HPM_P2
2021/09/14 00:02:19;;;;;;;11.02;3.50;;;;;;;-149.78;100.00;50342.38;5023851;28;20374;-60
2021/09/14 00:04:45;;;;;;;8.63;3.17;;;;;;;-149.78;100.00;50330.63;5023908;28;20120;-60
2021/09/14 00:07:10;;;;;;;8.13;2.90;;;;;;;-149.78;100.00;50320.84;5022648;28;20029;-60
2021/09/14 00:09:37;;;;;;;8.30;3.42;;;;;;;-149.78;100.00;50330.63;5018209;28;20045;-60
2021/09/14 00:12:03;;;;;;;7.68;3.10;;;;;;;-149.78;100.00;50303.25;5022623;28;20041;-60
2021/09/14 00:14:30;;;;;;;9.27;3.97;;;;;;;-149.78;100.00;50326.72;5020371;28;20385;-60
2021/09/14 00:16:55;;;;;;;7.75;3.38;;;;;;;-149.78;100.00;50358.00;5018558;28;20034;-60
2021/09/14 00:19:21;;;;;;;6.95;3.20;;;;;;;-149.78;100.00;50326.72;5031436;28;20033;-60
2021/09/14 00:21:47;;;;;;;6.55;3.30;;;;;;;-149.78;100.00;50322.81;5023813;28;20037;-60
2021/09/14 00:24:13;;;;;;;10.48;3.10;;;;;;;-149.78;100.00;50291.50;5025229;28;20033;-60
2021/09/14 00:26:38;;;;;;;7.93;3.42;;;;;;;-149.78;100.00;50330.63;5029221;28;20119;-60
2021/09/14 00:29:04;;;;;;;7.30;3.38;;;;;;;-149.78;100.00;50334.53;5020315;28;20046;-60
2021/09/14 00:31:29;;;;;;;10.25;3.30;;;;;;;-149.78;100.00;50299.34;5018169;28;20038;-60
2021/09/14 00:33:55;;;;;;;6.53;3.20;;;;;;;-149.78;100.00;50314.97;5022662;28;20042;-60
2021/09/14 00:36:21;;;;;;;8.52;3.53;;;;;;;-149.78;100.00;50322.81;5019703;28;20116;-60
2021/09/14 00:38:46;;;;;;;6.95;3.25;;;;;;;-149.78;100.00;50314.97;5027331;28;20030;-60
2021/09/14 00:41:12;;;;;;;8.00;3.33;;;;;;;-149.78;100.00;50330.63;5022749;28;20034;-60
2021/09/14 00:43:38;;;;;;;8.38;3.20;;;;;;;-149.78;100.00;50322.81;5030354;28;20391;-60
2021/09/14 00:46:04;;;;;;;7.53;3.42;;;;;;;-149.78;100.00;50322.81;5025034;28;20030;-60
2021/09/14 00:48:30;;;;;;;7.70;3.40;;;;;;;-149.78;100.00;50314.97;5019691;28;20492;-60
2021/09/14 00:50:55;;;;;;;7.93;3.35;;;;;;;-149.78;100.00;50293.47;5018677;28;20415;-60
2021/09/14 00:53:24;;;;;;;7.28;3.80;;;;;;;-149.78;100.00;50344.31;5022651;28;20041;-60
2021/09/14 00:55:50;;;;;;;7.63;3.42;;;;;;;-149.78;100.00;50340.41;5020832;28;20053;-60
2021/09/14 00:58:16;;;;;;;6.55;3.33;;;;;;;-149.78;100.00;50330.63;5028749;28;20029;-60
2021/09/14 01:00:42;;;;;;;8.77;4.22;;;;;;;-149.78;100.00;50301.28;5020504;28;20044;-60
2021/09/14 01:03:07;;;;;;;6.38;3.35;;;;;;;-149.78;100.00;50342.38;5018837;28;20092;-60
2021/09/14 01:05:33;;;;;;;7.53;3.50;;;;;;;-149.78;100.00;50336.50;5024523;28;20092;-60
2021/09/14 01:08:00;;;;;;;8.32;3.78;;;;;;;-149.78;100.00;50326.72;5023590;28;20030;-60
2021/09/14 01:10:27;;;;;;;7.13;3.10;;;;;;;-149.78;100.00;50342.38;5023250;28;20025;-60
2021/09/14 01:12:52;;;;;;;10.93;3.50;;;;;;;-149.78;100.00;50307.16;5019819;28;20041;-60
2021/09/14 01:15:18;;;;;;;7.82;3.63;;;;;;;-149.78;100.00;50322.81;5017480;28;20096;-60
2021/09/14 01:17:43;;;;;;;9.73;4.00;;;;;;;-149.78;100.00;50338.44;5017656;28;20508;-60
2021/09/14 01:20:10;;;;;;;9.75;3.63;;;;;;;-149.78;100.00;50350.19;5020257;28;20038;-60
2021/09/14 01:22:36;;;;;;;5.93;3.28;;;;;;;-149.78;100.00;50334.53;5020992;28;20459;-60
2021/09/14 01:25:13;;;;;;;9.50;3.85;;;;;;;-149.78;100.00;50334.53;5027432;28;20035;-60
2021/09/14 01:27:38;;;;;;;7.50;3.55;;;;;;;-149.78;100.00;50338.44;5022859;28;20438;-60
2021/09/14 01:30:12;;;;;;;7.97;3.53;;;;;;;-149.78;100.00;50358.00;5033112;28;20568;-60
2021/09/14 01:32:41;;;;;;;8.73;3.80;;;;;;;-149.78;100.00;50361.91;5034581;28;20052;-60
2021/09/14 01:35:13;;;;;;;10.18;3.75;;;;;;;-149.78;100.00;50303.25;5033236;28;20384;-60
2021/09/14 01:37:39;;;;;;;8.45;4.00;;;;;;;-149.78;100.00;50330.63;5034337;28;20040;-60
2021/09/14 01:40:05;;;;;;;9.18;3.25;;;;;;;-149.78;100.00;50326.72;5032501;28;20038;-60
2021/09/14 01:42:31;;;;;;;10.80;3.95;;;;;;;-149.78;100.00;50320.84;5033652;28;20052;-60
2021/09/14 01:44:57;;;;;;;5.55;3.38;;;;;;;-149.78;100.00;50336.50;5035413;28;20038;-60
2021/09/14 01:47:23;;;;;;;8.68;3.80;;;;;;;-149.78;100.00;50377.56;5035017;28;20534;-60
2021/09/14 01:49:49;;;;;;;8.20;4.00;;;;;;;-149.78;100.00;50320.84;5035108;28;20146;-60
2021/09/14 01:52:14;;;;;;;9.35;3.63;;;;;;;-149.78;100.00;50354.09;5033116;28;20037;-61
2021/09/14 01:54:43;;;;;;;8.68;4.03;;;;;;;-149.78;100.00;50365.84;5034646;28;20091;-60
2021/09/14 01:57:09;;;;;;;9.00;3.60;;;;;;;-149.78;100.00;50324.75;5031910;28;20037;-60
2021/09/14 01:59:37;;;;;;;11.13;3.63;;;;;;;-149.78;100.00;50318.91;5033746;28;20041;-60
2021/09/14 02:58:41;;;;;;;10.00;4.03;;;;;;;-149.78;100.00;50350.19;5026118;28;20036;-60
2021/09/14 03:01:08;;;;;;;11.48;4.20;;;;;;;-149.78;100.00;50330.63;5031985;28;20056;-60
2021/09/14 03:03:35;;;;;;;13.88;4.85;;;;;;;-149.78;100.00;50330.63;5031836;28;20350;-60
2021/09/14 03:06:00;;;;;;;10.23;3.97;;;;;;;-149.78;100.00;50322.81;5031991;28;20424;-60
2021/09/14 03:08:26;;;;;;;9.75;4.35;;;;;;;-149.78;100.00;50350.19;5032237;28;20116;-60
2021/09/14 03:10:52;;;;;;;13.57;5.18;;;;;;;-149.78;100.00;50361.91;5030950;28;20400;-60
2021/09/14 03:13:18;;;;;;;10.75;4.97;;;;;;;-149.78;100.00;50354.09;5032634;28;20037;-60
2021/09/14 03:15:44;;;;;;;12.63;5.15;;;;;;;-149.78;100.00;50358.00;5030920;28;20033;-60
2021/09/14 03:18:09;;;;;;;11.23;5.03;;;;;;;-149.78;100.00;50303.25;5033198;28;20041;-60
2021/09/14 03:20:35;;;;;;;9.63;5.32;;;;;;;-149.78;100.00;50377.56;5032334;28;20393;-60
2021/09/14 03:23:01;;;;;;;10.40;5.47;;;;;;;-149.78;100.00;50314.97;5030966;28;20538;-60
2021/09/14 03:25:27;;;;;;;9.93;4.97;;;;;;;-149.78;100.00;50389.31;5031913;28;20461;-60
2021/09/14 03:27:52;;;;;;;12.57;5.13;;;;;;;-149.78;100.00;50320.84;5029688;28;20386;-60
2021/09/14 03:30:18;;;;;;;11.43;5.35;;;;;;;-149.78;100.00;50350.19;5032163;28;20061;-60
2021/09/14 03:32:44;;;;;;;11.25;5.32;;;;;;;-149.78;100.00;50346.28;5031986;28;20493;-60
2021/09/14 03:35:10;;;;;;;17.42;5.47;;;;;;;-149.78;100.00;50326.72;5029701;28;20060;-60
2021/09/14 03:37:36;;;;;;;12.63;5.80;;;;;;;-149.78;100.00;50318.91;5032268;28;20444;-60
2021/09/14 03:40:02;;;;;;;16.80;6.35;;;;;;;-149.78;100.00;50334.53;5029149;28;20029;-60
2021/09/14 03:42:27;;;;;;;17.10;5.55;;;;;;;-149.78;100.00;50350.19;5031748;28;20132;-60
2021/09/14 03:44:53;;;;;;;16.13;5.72;;;;;;;-149.78;100.00;50350.19;5031339;28;20041;-60
2021/09/14 03:47:19;;;;;;;13.52;5.63;;;;;;;-149.78;100.00;50358.00;5031849;28;20030;-60
2021/09/14 03:49:44;;;;;;;18.35;6.05;;;;;;;-149.78;100.00;50318.91;5031056;28;20489;-60
2021/09/14 03:52:10;;;;;;;18.80;5.95;;;;;;;-149.78;100.00;50367.78;5030926;28;20049;-60
2021/09/14 03:54:35;;;;;;;14.15;6.07;;;;;;;-149.78;100.00;50346.28;5031261;28;20091;-60
2021/09/14 03:57:01;;;;;;;17.85;7.25;;;;;;;-149.78;100.00;50314.97;5030634;28;20042;-60
2021/09/14 03:59:27;;;;;;;12.50;5.82;;;;;;;-149.78;100.00;50385.38;5024154;28;20061;-60
2021/09/14 04:01:54;;;;;;;13.90;5.55;;;;;;;-149.78;100.00;50326.72;5031159;28;20455;-60
2021/09/14 04:04:26;;;;;;;17.73;6.68;;;;;;;-149.78;100.00;50359.97;5032163;28;20109;-60
2021/09/14 04:07:23;;;;;;;17.00;6.82;;;;;;;-149.78;100.00;50348.22;5030744;28;20515;-60
2021/09/14 04:09:37;;;;;;;17.17;6.57;;;;;;;-149.78;100.00;50328.69;5019064;28;20053;-60
2021/09/14 04:12:04;;;;;;;15.02;7.15;;;;;;;-149.78;100.00;50318.91;5032304;28;20041;-60
2021/09/14 04:14:32;;;;;;;14.55;6.30;;;;;;;-149.78;100.00;50354.09;5033055;28;20041;-60
2021/09/14 04:16:57;;;;;;;13.88;6.32;;;;;;;-149.78;100.00;50334.53;5031059;28;20099;-60
2021/09/14 04:19:23;;;;;;;14.15;7.03;;;;;;;-149.78;100.00;50336.50;5030775;28;20042;-60
2021/09/14 04:21:50;;;;;;;14.25;7.20;;;;;;;-149.78;100.00;50350.19;5032765;28;20041;-60
2021/09/14 04:24:15;;;;;;;18.77;6.95;;;;;;;-149.78;100.00;50307.16;5028285;28;20036;-60
2021/09/14 04:26:41;;;;;;;15.40;6.78;;;;;;;-149.78;100.00;50348.22;5030811;28;20037;-60
2021/09/14 04:29:07;;;;;;;17.23;7.28;;;;;;;-149.78;100.00;50346.28;5032247;28;20075;-60
2021/09/14 04:31:32;;;;;;;17.75;7.20;;;;;;;-149.78;100.00;50350.19;5031282;28;20346;-60
2021/09/14 04:33:58;;;;;;;16.80;6.35;;;;;;;-149.78;100.00;50365.84;5030947;28;20128;-60
2021/09/14 04:36:23;;;;;;;17.13;7.28;;;;;;;-149.78;100.00;50326.72;5032007;28;20121;-61
2021/09/14 04:38:49;;;;;;;17.50;6.53;;;;;;;-149.78;100.00;50373.66;5031096;28;20037;-60
2021/09/14 04:41:14;;;;;;;16.13;7.32;;;;;;;-149.78;100.00;50314.97;5030818;28;20048;-61
2021/09/14 04:43:40;;;;;;;18.92;6.97;;;;;;;-149.78;100.00;50334.53;5030650;28;20044;-61
2021/09/14 04:46:06;;;;;;;17.63;7.78;;;;;;;-149.78;100.00;50367.78;5034409;28;20033;-61
2021/09/14 04:48:31;;;;;;;21.25;7.80;;;;;;;-149.78;100.00;50363.88;5035380;28;20038;-61
2021/09/14 04:50:57;;;;;;;18.70;8.05;;;;;;;-149.78;100.00;50330.63;5035537;28;20038;-61
2021/09/14 04:53:22;;;;;;;15.60;7.22;;;;;;;-149.78;100.00;50318.91;5029685;28;20048;-61
2021/09/14 04:55:49;;;;;;;16.15;7.35;;;;;;;-149.78;100.00;50346.28;5034328;28;20033;-61
2021/09/14 04:58:14;;;;;;;15.55;7.28;;;;;;;-149.78;100.00;50350.19;5035447;28;20056;-60
2021/09/14 05:00:40;;;;;;;14.95;7.30;;;;;;;-149.78;100.00;50334.53;5029049;28;20470;-60
2021/09/14 05:03:05;;;;;;;15.80;7.35;;;;;;;-149.78;100.00;50379.53;5027862;28;20046;-60
2021/09/14 05:05:31;;;;;;;21.98;7.18;;;;;;;-149.78;100.00;50324.75;5029719;28;20179;-61
2021/09/14 05:07:57;;;;;;;17.95;8.05;;;;;;;-149.78;100.00;50326.72;5025021;28;20037;-60
2021/09/14 05:10:22;;;;;;;17.60;7.03;;;;;;;-149.78;100.00;50328.69;5032941;28;20059;-61
2021/09/14 05:12:48;;;;;;;17.17;7.57;;;;;;;-149.78;100.00;50389.31;5034829;28;20043;-60
2021/09/14 05:15:13;;;;;;;17.33;7.38;;;;;;;-149.78;100.00;50342.38;5021422;28;20040;-60
2021/09/14 05:17:39;;;;;;;22.27;8.00;;;;;;;-149.78;100.00;50320.84;5033487;28;20507;-61
2021/09/14 05:20:05;;;;;;;19.40;6.97;;;;;;;-149.78;100.00;50338.44;5033447;28;20044;-60
2021/09/14 05:22:33;;;;;;;20.15;7.93;;;;;;;-149.78;100.00;50354.09;5033968;28;20033;-60
2021/09/14 05:24:59;;;;;;;20.88;6.85;;;;;;;-149.78;100.00;50342.38;5035499;28;20045;-60
2021/09/14 05:27:25;;;;;;;15.25;7.13;;;;;;;-149.78;100.00;50322.81;5031337;28;20072;-60
2021/09/14 05:29:51;;;;;;;15.50;6.97;;;;;;;-149.78;100.00;50346.28;5030016;28;20065;-60
2021/09/14 05:32:19;;;;;;;15.90;6.28;;;;;;;-149.78;100.00;50350.19;5033608;28;20104;-60
2021/09/14 05:34:48;;;;;;;16.08;6.22;;;;;;;-149.78;100.00;50330.63;5033921;28;20041;-60
2021/09/14 05:37:15;;;;;;;12.95;6.22;;;;;;;-149.78;100.00;50365.84;5026783;28;20374;-60
2021/09/14 05:39:40;;;;;;;16.23;6.28;;;;;;;-149.78;100.00;50358.00;5032183;28;20033;-60
2021/09/14 05:42:07;;;;;;;14.63;5.82;;;;;;;-149.78;100.00;50350.19;5028967;28;20100;-60
2021/09/14 05:44:35;;;;;;;14.43;6.47;;;;;;;-149.78;100.00;50369.75;5024209;28;20048;-60
2021/09/14 05:47:02;;;;;;;16.73;6.43;;;;;;;-149.78;100.00;50379.53;5028275;28;20124;-60
2021/09/14 05:49:28;;;;;;;15.55;6.00;;;;;;;-149.78;100.00;50346.28;5033305;28;20037;-60
2021/09/14 05:51:54;;;;;;;13.73;5.68;;;;;;;-149.78;100.00;50340.41;5033608;28;20048;-60
2021/09/14 05:54:20;;;;;;;16.30;6.57;;;;;;;-149.78;100.00;50354.09;5034088;28;20056;-60
2021/09/14 05:56:46;;;;;;;15.93;6.00;;;;;;;-149.78;100.00;50352.16;5031199;28;20045;-60
2021/09/14 05:59:11;;;;;;;18.02;6.55;;;;;;;-149.78;100.00;50354.09;5030991;28;20121;-60
2021/09/14 06:01:37;;;;;;;17.38;7.80;;;;;;;-149.78;100.00;50322.81;5027905;28;20140;-60
2021/09/14 06:04:02;;;;;;;20.02;8.32;;;;;;;-149.78;100.00;50377.56;5028933;28;20076;-60
2021/09/14 06:06:28;;;;;;;17.50;7.60;;;;;;;-149.78;100.00;50346.28;5030687;28;20499;-60
2021/09/14 06:08:54;;;;;;;21.05;8.85;;;;;;;-149.78;100.00;50326.72;5030062;28;20026;-60
2021/09/14 06:11:19;;;;;;;20.80;8.73;;;;;;;-149.78;100.00;50358.00;5020093;28;20069;-60
2021/09/14 06:13:45;;;;;;;19.05;8.70;;;;;;;-149.78;100.00;50314.97;5031329;28;20120;-60
2021/09/14 06:16:11;;;;;;;20.65;9.05;;;;;;;-149.78;100.00;50299.34;5032413;28;20507;-60
2021/09/14 06:18:37;;;;;;;24.58;10.00;;;;;;;-149.78;100.00;50311.06;5027636;28;20117;-61
2021/09/14 06:21:04;;;;;;;22.17;9.75;;;;;;;-149.78;100.00;50354.09;5018931;28;20561;-62
2021/09/14 06:23:29;;;;;;;23.10;10.10;;;;;;;-149.78;100.00;50346.28;5026960;28;20116;-61
2021/09/14 06:25:55;;;;;;;21.23;9.73;;;;;;;-149.78;100.00;50346.28;5023808;28;20044;-60
2021/09/14 06:28:21;;;;;;;20.92;9.35;;;;;;;-149.78;100.00;50354.09;5024876;28;20520;-61
2021/09/14 06:30:46;;;;;;;21.50;8.23;;;;;;;-149.78;100.00;50354.09;5028617;28;20029;-59
2021/09/14 06:33:12;;;;;;;20.45;8.57;;;;;;;-149.78;100.00;50350.19;5030925;28;20487;-60
2021/09/14 06:35:37;;;;;;;19.80;7.85;;;;;;;-149.78;100.00;50358.00;5032759;28;20412;-61
2021/09/14 06:38:03;;;;;;;23.88;7.95;;;;;;;-149.78;100.00;50350.19;5033073;28;20068;-61
2021/09/14 06:40:31;;;;;;;17.15;7.20;;;;;;;-149.78;100.00;50352.16;5027762;28;20037;-58
2021/09/14 06:42:58;;;;;;;15.63;7.22;;;;;;;-149.78;100.00;50358.00;5030970;28;20140;-59
2021/09/14 06:45:24;;;;;;;17.95;7.68;;;;;;;-149.78;100.00;50307.16;5030673;28;20056;-59
2021/09/14 06:47:49;;;;;;;18.40;7.68;;;;;;;-149.78;100.00;50361.91;5022914;28;20030;-59
2021/09/14 06:50:15;;;;;;;19.55;7.68;;;;;;;-149.78;100.00;50326.72;5014985;28;20505;-61
2021/09/14 06:52:46;;;;;;;23.33;8.10;;;;;;;-149.78;100.00;50363.88;5014149;28;20034;-62
2021/09/14 06:55:11;;;;;;;18.70;7.63;;;;;;;-149.78;100.00;50334.53;5019686;28;20385;-61
2021/09/14 06:57:38;;;;;;;16.48;7.25;;;;;;;-149.78;100.00;50350.19;5020324;28;20512;-61
2021/09/14 07:00:04;;;;;;;19.30;8.02;;;;;;;-149.78;100.00;50358.00;5018771;28;20042;-61
2021/09/14 07:02:30;;;;;;;19.63;7.82;;;;;;;-149.78;100.00;50354.09;5018191;28;20044;-60
2021/09/14 07:04:55;;;;;;;16.20;7.57;;;;;;;-149.78;100.00;50330.63;5016633;28;20038;-60
2021/09/14 07:07:21;;;;;;;19.10;7.95;;;;;;;-149.78;100.00;50330.63;5014158;28;20029;-60
2021/09/14 07:09:47;;;;;;;23.63;7.72;;;;;;;-149.78;100.00;50358.00;5020290;28;20026;-60
2021/09/14 07:12:12;;;;;;;21.08;7.90;;;;;;;-149.78;100.00;50342.38;5024574;28;20508;-60
2021/09/14 07:14:38;;;;;;;20.20;7.55;;;;;;;-149.78;100.00;50373.66;5018248;28;20133;-60
2021/09/14 07:17:04;;;;;;;19.35;7.95;;;;;;;-149.78;100.00;50346.28;5024689;28;20124;-60
2021/09/14 07:19:29;;;;;;;18.88;8.13;;;;;;;-149.78;100.00;50334.53;5016778;28;20042;-60
2021/09/14 07:21:55;;;;;;;20.20;8.15;;;;;;;-149.78;100.00;50369.75;5019080;28;20037;-60
2021/09/14 07:24:21;;;;;;;19.63;7.82;;;;;;;-149.78;100.00;50361.91;5019528;28;20041;-60
2021/09/14 07:26:47;;;;;;;19.42;7.35;;;;;;;-149.78;100.00;50299.34;5029777;28;20029;-61
2021/09/14 07:29:13;;;;;;;22.80;8.20;;;;;;;-149.78;100.00;50350.19;5024884;28;20060;-61
2021/09/14 07:31:41;;;;;;;24.05;8.20;;;;;;;-149.78;100.00;50307.16;5030002;28;20033;-60
2021/09/14 07:34:07;;;;;;;24.90;8.73;;;;;;;-149.78;100.00;50369.75;5027072;28;20046;-60
2021/09/14 07:36:33;;;;;;;19.70;8.23;;;;;;;-149.78;100.00;50344.31;5024172;28;20037;-60
2021/09/14 07:38:59;;;;;;;20.25;8.05;;;;;;;-149.78;100.00;50358.00;5025136;28;20095;-60
2021/09/14 07:41:25;;;;;;;19.45;8.85;;;;;;;-149.78;100.00;50354.09;5020617;28;20044;-60
2021/09/14 07:43:50;;;;;;;19.13;8.07;;;;;;;-149.78;100.00;50358.00;5024720;28;20030;-60
2021/09/14 07:46:16;;;;;;;16.02;8.15;;;;;;;-149.78;100.00;50369.75;5020248;28;20133;-60
2021/09/14 07:48:41;;;;;;;17.65;8.10;;;;;;;-149.78;100.00;50326.72;5026947;28;20033;-60
2021/09/14 07:51:07;;;;;;;21.08;9.00;;;;;;;-149.78;100.00;50354.09;5026551;28;20052;-60
2021/09/14 07:53:34;;;;;;;22.08;9.23;;;;;;;-149.78;100.00;50326.72;5030808;28;20416;-60
2021/09/14 07:56:00;;;;;;;22.80;8.93;;;;;;;-149.78;100.00;50358.00;5028049;28;20033;-62
2021/09/14 07:58:28;;;;;;;23.15;9.02;;;;;;;-149.78;100.00;50330.63;5028182;28;20026;-61
2021/09/14 08:00:53;;;;;;;25.92;10.02;;;;;;;-149.78;100.00;50340.41;5032060;28;20057;-60
2021/09/14 08:03:19;;;;;;;24.10;9.70;;;;;;;-149.78;100.00;50340.41;5028590;28;20077;-61
2021/09/14 08:05:45;;;;;;;22.27;9.15;;;;;;;-149.78;100.00;50332.59;5031555;28;20057;-59
2021/09/14 08:08:11;;;;;;;23.05;9.93;;;;;;;-149.78;100.00;50334.53;5025240;28;20041;-60
2021/09/14 08:10:38;;;;;;;23.48;8.98;;;;;;;-149.78;100.00;50354.09;5024785;28;20041;-61
2021/09/14 08:13:04;;;;;;;26.35;9.98;;;;;;;-149.78;100.00;50334.53;5023934;28;20034;-61
2021/09/14 08:15:29;;;;;;;23.17;10.00;;;;;;;-149.78;100.00;50311.06;5034744;28;20029;-61
2021/09/14 08:17:55;;;;;;;26.10;9.50;;;;;;;-149.78;100.00;50358.00;5033683;28;20030;-61
2021/09/14 08:20:21;;;;;;;21.65;10.02;;;;;;;-149.78;100.00;50397.13;5021303;28;20030;-60
2021/09/14 08:22:47;;;;;;;27.65;10.65;;;;;;;-149.78;100.00;50322.81;5043643;28;20037;-61
2021/09/14 08:25:13;;;;;;;23.23;11.18;;;;;;;-149.78;100.00;50354.09;5047001;28;20479;-61
2021/09/14 08:27:41;;;;;;;24.88;11.13;;;;;;;-149.78;100.00;50342.38;5040884;28;20029;-61
2021/09/14 08:30:07;;;;;;;26.92;11.60;;;;;;;-149.78;100.00;50365.84;5037946;28;20050;-61
2021/09/14 08:32:33;;;;;;;26.13;10.32;;;;;;;-149.78;100.00;50354.09;5036352;28;20029;-61
2021/09/14 08:35:01;;;;;;;29.92;11.57;;;;;;;-149.78;100.00;50361.91;5037709;28;20116;-61
2021/09/14 08:37:27;;;;;;;27.48;11.07;;;;;;;-149.78;100.00;50344.31;5040253;28;20156;-61
2021/09/14 08:39:53;;;;;;;22.20;10.20;;;;;;;-149.78;100.00;50350.19;5038785;28;20033;-62
2021/09/14 08:42:19;;;;;;;25.48;11.27;;;;;;;-149.78;100.00;50365.84;5029505;28;20030;-62
2021/09/14 08:44:46;;;;;;;31.85;12.60;;;;;;;-149.78;100.00;50334.53;5030116;28;20037;-61
2021/09/14 08:47:11;;;;;;;34.28;13.43;;;;;;;-149.78;100.00;50365.84;5038168;28;20030;-61
2021/09/14 08:49:37;;;;;;;30.92;11.98;;;;;;;-149.78;100.00;50358.00;5042294;28;20078;-60
2021/09/14 08:52:03;;;;;;;34.88;14.02;;;;;;;-149.78;100.00;50330.63;5023304;28;20686;-60
2021/09/14 08:54:29;;;;;;;27.88;13.82;;;;;;;-149.78;100.00;50365.84;5020984;28;20034;-64
2021/09/14 08:56:55;;;;;;;38.20;14.50;;;;;;;-149.78;100.00;50336.50;5028175;28;20040;-63
2021/09/14 08:59:30;;;;;;;34.72;14.88;;;;;;;-149.78;100.00;50328.69;5026041;28;20046;-64
2021/09/14 09:02:00;;;;;;;34.53;14.45;;;;;;;-149.78;100.00;50361.91;5022797;28;20032;-64
2021/09/14 09:04:26;;;;;;;29.50;12.90;;;;;;;-149.78;100.00;50334.53;5025618;28;20033;-64
2021/09/14 09:06:52;;;;;;;34.13;14.15;;;;;;;-149.78;100.00;50350.19;5022626;28;20519;-64
2021/09/14 09:09:19;;;;;;;30.80;13.10;;;;;;;-149.78;100.00;50334.53;5028516;28;20042;-63
2021/09/14 09:11:54;;;;;;;31.10;13.82;;;;;;;-149.78;100.00;50348.22;5024002;28;20029;-63
2021/09/14 09:14:36;;;;;;;36.25;13.77;;;;;;;-149.78;100.00;50369.75;5019339;28;20042;-64
2021/09/14 09:17:05;;;;;;;32.47;15.43;;;;;;;-149.78;100.00;50354.09;5019559;28;20046;-64
2021/09/14 09:19:31;;;;;;;36.63;14.00;;;;;;;-149.78;100.00;50334.53;5021309;28;20057;-64
2021/09/14 09:21:58;;;;;;;39.97;14.70;;;;;;;-149.78;100.00;50365.84;5001332;28;20033;-64
2021/09/14 09:24:24;;;;;;;34.75;14.48;;;;;;;-149.78;100.00;50342.38;5020825;28;20571;-60
2021/09/14 09:26:51;;;;;;;31.83;13.48;;;;;;;-149.78;100.00;50365.84;5019125;28;20030;-60
2021/09/14 09:29:21;;;;;;;30.10;14.32;;;;;;;-149.78;100.00;50352.16;5018344;28;20046;-60
2021/09/14 09:31:49;;;;;;;29.85;14.13;;;;;;;-149.78;100.00;50350.19;5026215;28;20488;-60
2021/09/14 09:34:15;;;;;;;33.20;15.32;;;;;;;-149.78;100.00;50346.28;5026854;28;20556;-61
2021/09/14 09:36:43;;;;;;;31.33;14.27;;;;;;;-149.78;100.00;50369.75;5024211;28;20068;-60
2021/09/14 09:39:11;;;;;;;35.83;15.95;;;;;;;-149.78;100.00;50397.13;5039953;28;20033;-60
2021/09/14 09:41:40;;;;;;;30.23;15.02;;;;;;;-149.78;100.00;50354.09;5030519;28;20044;-60
2021/09/14 09:44:07;;;;;;;32.92;15.32;;;;;;;-149.78;100.00;50346.28;5027034;28;20083;-61
2021/09/14 09:46:33;;;;;;;32.17;15.02;;;;;;;-149.78;100.00;50334.53;5019275;28;20042;-60
2021/09/14 09:49:05;;;;;;;39.60;15.73;;;;;;;-149.78;100.00;50330.63;5025438;28;20035;-60
2021/09/14 09:51:36;;;;;;;31.65;14.43;;;;;;;-149.78;100.00;50369.75;5022975;28;20029;-61
2021/09/14 09:54:04;;;;;;;38.17;14.93;;;;;;;-149.78;100.00;50336.50;5026030;28;20373;-61
2021/09/14 09:56:31;;;;;;;41.75;16.15;;;;;;;-149.78;100.00;50344.31;5023732;28;20040;-60
2021/09/14 09:58:57;;;;;;;34.92;15.40;;;;;;;-149.78;100.00;50359.97;5020441;28;20043;-61
2021/09/14 10:01:25;;;;;;;39.80;16.42;;;;;;;-149.78;100.00;50365.84;5028181;28;20136;-61
2021/09/14 10:04:17;;;;;;;41.53;16.20;;;;;;;-149.78;100.00;50363.88;5036107;28;20048;-60
2021/09/14 10:07:05;;;;;;;43.05;18.88;;;;;;;-149.78;100.00;50365.84;5030016;28;20056;-61
2021/09/14 10:09:51;;;;;;;39.55;16.67;;;;;;;-149.78;100.00;50354.09;5020861;28;20092;-61
2021/09/14 10:12:35;;;;;;;40.22;17.08;;;;;;;-149.78;100.00;50350.19;5021576;28;20047;-61
2021/09/14 10:15:19;;;;;;;35.08;15.43;;;;;;;-149.78;100.00;50332.59;5020484;28;20052;-64
2021/09/14 10:18:04;;;;;;;40.03;16.88;;;;;;;-149.78;100.00;50365.84;5017575;28;20064;-64
2021/09/14 10:20:48;;;;;;;42.35;16.40;;;;;;;-149.78;100.00;50369.75;5029480;28;20047;-64
2021/09/14 10:23:34;;;;;;;39.00;16.58;;;;;;;-149.78;100.00;50338.44;5028095;28;20049;-65
2021/09/14 10:26:19;;;;;;;36.65;17.02;;;;;;;-149.78;100.00;50342.38;5031392;28;20063;-64
2021/09/14 10:29:15;;;;;;;37.88;16.58;;;;;;;-149.78;100.00;50356.06;5025214;28;20059;-64
2021/09/14 10:32:05;;;;;;;39.78;17.02;;;;;;;-149.78;100.00;50352.16;5037694;28;20088;-64
2021/09/14 10:34:33;;;;;;;41.35;16.85;;;;;;;-149.78;100.00;50342.38;5036843;28;20381;-64
2021/09/14 10:37:04;;;;;;;34.85;16.10;;;;;;;-149.78;100.00;50342.38;5037152;28;20555;-64
2021/09/14 10:39:41;;;;;;;41.42;16.55;;;;;;;-149.78;100.00;50369.75;5033943;28;20030;-64
2021/09/14 10:42:17;;;;;;;38.45;16.45;;;;;;;-149.78;100.00;50387.34;5041141;28;20037;-65
2021/09/14 10:44:45;;;;;;;33.47;15.52;;;;;;;-149.78;100.00;50338.44;5039088;28;20483;-64
2021/09/14 10:47:19;;;;;;;33.78;16.38;;;;;;;-149.78;100.00;50342.38;5040546;28;20029;-64
2021/09/14 10:50:04;;;;;;;33.22;14.85;;;;;;;-149.78;100.00;50361.91;5036470;28;20033;-64
2021/09/14 10:52:31;;;;;;;38.38;15.90;;;;;;;-149.78;100.00;50397.13;5034196;28;20496;-65
2021/09/14 10:54:58;;;;;;;31.10;15.18;;;;;;;-149.78;100.00;50373.66;5029731;28;20043;-64
2021/09/14 10:57:35;;;;;;;29.60;13.48;;;;;;;-149.78;100.00;50330.63;5030422;28;20473;-64
2021/09/14 11:00:02;;;;;;;30.48;13.35;;;;;;;-149.78;100.00;50334.53;5030372;28;20072;-64
2021/09/14 11:02:29;;;;;;;28.70;13.68;;;;;;;-149.78;100.00;50375.63;5038355;28;20056;-64
2021/09/14 11:04:58;;;;;;;32.10;13.35;;;;;;;-149.78;100.00;50346.28;5041870;28;20041;-64
2021/09/14 11:07:24;;;;;;;30.88;14.07;;;;;;;-149.78;100.00;50350.19;5038286;28;20033;-65
2021/09/14 11:09:54;;;;;;;30.38;13.57;;;;;;;-149.78;100.00;50340.41;5032637;28;20486;-65
2021/09/14 11:12:25;;;;;;;30.33;13.80;;;;;;;-149.78;100.00;50361.91;5024944;28;20478;-65
2021/09/14 11:14:52;;;;;;;29.92;13.40;;;;;;;-149.78;100.00;50369.75;5035145;28;20535;-64
2021/09/14 11:17:33;;;;;;;31.48;13.10;;;;;;;-149.78;100.00;50387.34;5029632;28;20033;-64
2021/09/14 11:20:09;;;;;;;33.70;15.15;;;;;;;-149.78;100.00;50334.53;5044098;28;20049;-64
2021/09/14 11:22:37;;;;;;;30.85;14.30;;;;;;;-149.78;100.00;50365.84;5037503;28;20040;-64
2021/09/14 11:25:03;;;;;;;30.10;14.23;;;;;;;-149.78;100.00;50354.09;5036998;28;20494;-64
2021/09/14 11:27:29;;;;;;;30.73;14.18;;;;;;;-149.78;100.00;50373.66;5036546;28;20373;-64
2021/09/14 11:29:57;;;;;;;28.85;14.60;;;;;;;-149.78;100.00;50373.66;5034641;28;20061;-63
2021/09/14 11:32:25;;;;;;;35.38;14.98;;;;;;;-149.78;100.00;50393.22;5022843;28;20030;-65
2021/09/14 11:34:52;;;;;;;28.30;13.90;;;;;;;-149.78;100.00;50354.09;5024307;28;20029;-65
2021/09/14 11:37:29;;;;;;;32.22;14.80;;;;;;;-149.78;100.00;50361.91;5018184;28;20477;-65
2021/09/14 11:39:56;;;;;;;30.33;13.88;;;;;;;-149.78;100.00;50346.28;5021043;28;20037;-64
2021/09/14 11:42:24;;;;;;;30.05;13.48;;;;;;;-149.78;100.00;50346.28;5019649;28;20026;-63
2021/09/14 11:45:03;;;;;;;27.02;12.55;;;;;;;-149.78;100.00;50371.69;5024047;28;20030;-63
2021/09/14 11:47:29;;;;;;;29.92;12.63;;;;;;;-149.78;100.00;50350.19;5026861;28;20033;-64
2021/09/14 11:49:56;;;;;;;33.30;12.88;;;;;;;-149.78;100.00;50359.97;5022144;28;20026;-63
2021/09/14 11:52:21;;;;;;;25.98;12.63;;;;;;;-149.78;100.00;50326.72;5019547;28;20025;-63
2021/09/14 11:55:09;;;;;;;30.92;12.82;;;;;;;-149.78;100.00;50389.31;5029664;28;20420;-64
2021/09/14 11:57:56;;;;;;;29.45;13.10;;;;;;;-149.78;100.00;50346.28;5033087;28;20543;-64
2021/09/14 12:00:34;;;;;;;30.95;13.60;;;;;;;-149.78;100.00;50330.63;5039861;28;20061;-64